Terminal Aerodrome Forecast
Issued by NWS

Home | Current Version | Previous Version | Text Only | Print | Product List | Glossary On
Versions: 1 2 3 4 5 6 7 8 9 10 11 12 13 14 15
000
FTUS46 KLOX 231131
TAFWJF
TAF
KWJF 231131Z 2312/2412 27012KT P6SM SKC
     FM232100 25020G28KT P6SM SKC
     FM240300 25014KT P6SM SKC=

USA.gov is the U.S. government's official web portal to all federal, state and local government web resources and services.